Details From KBDL - Bradley Intl
To KBID - Block Island State
Flight Number -
Tags generated
Created
Modified
Stats Distance 68 nm / 126 km
Max Altitude 3,400 ft / 1,036 m
Waypoints 3
Social Downloads 0
Likes 0
Share VATSIM

Download

Looking for another format? Having issues loading an existing format? Contact us
Advertisement - Login to hide

Notes

Basic altitude profile: - Ascent Rate: 2500ft/min - Ascent Speed: 250kts - Cruise Altitude: 35000ft - Cruise Speed: 420kts - Descent Rate: 1500ft/min - Descent Speed: 250kts

Route

KBDL WACKY KBID

ID Type Via Altitude Latitude Longitude Leg Dist Tot Dist Heading (true) Name
O KBDL APT - 0 ft / 0 m 41.93892˚ -72.68279˚ - 0 nm - Bradley Intl
WACKY FIX - 3,400 ft / 1,036 m 41.34042˚ -71.85619˚ 51 nm 51 nm 134° / 134° -
O KBID APT - 0 ft / 0 m 41.16814˚ -71.57761˚ 16 nm 67 nm 129° / 130° Block Island State

Altitude Profile

Advertisement - Login to hide

KBDL

Details ICAO KBDL (BDL)
Name Bradley Intl
Region United States
Timezone America/New_York (UTC-4.0)
Stats Elevation 172 ft / 52 m (AMSL)
Location 41.938916° -72.682790°
Runways 3
Magnetic Variation 13.817° W

METAR

KBDL 270151Z 00000KT 10SM SCT170 BKN200 BKN250 26/16 A2986 RMK AO2 SLP110 T02560156

Decode

TAF

KBDL 262321Z 2700/2806 24005KT P6SM BKN200 FM270600 03005KT P6SM OVC070 FM270800 04007KT P6SM OVC010 FM271400 04008KT P6SM VCSH SCT008 BKN030 FM272100 05009KT P6SM VCSH OVC008 FM280000 04007KT P6SM OVC010

Decode

Departure Runways

ID Width Length Bearing (true) Bearing (mag) Surface Threshold Offset Overrun Length
01 100 ft / 30 m 4,273 ft / 1,302 m 359.04° 12.86° Asphalt 479 ft / 146 m 0 ft / 0 m
06 200 ft / 61 m 9,505 ft / 2,897 m 44.27° 58.09° Asphalt 0 ft / 0 m 243 ft / 74 m
15 150 ft / 46 m 6,843 ft / 2,086 m 134.48° 148.30° Asphalt 0 ft / 0 m 997 ft / 304 m
19 100 ft / 30 m 4,273 ft / 1,302 m 179.04° 192.86° Asphalt 0 ft / 0 m 0 ft / 0 m
24 200 ft / 61 m 9,505 ft / 2,897 m 224.29° 238.11° Asphalt 0 ft / 0 m 988 ft / 301 m
33 150 ft / 46 m 6,843 ft / 2,086 m 314.49° 328.31° Asphalt 0 ft / 0 m 95 ft / 29 m

KBID

Details ICAO KBID (BID)
Name Block Island State
Region United States
Timezone America/New_York (UTC-4.0)
Stats Elevation 108 ft / 33 m (AMSL)
Location 41.168139° -71.577612°
Runways 1
Magnetic Variation 14.114° W

METAR

KBID 270156Z AUTO 24012KT 10SM CLR 17/16 A2988 RMK AO2 SLP121 T01720156

Decode

TAF

Not found

Destination Runways

ID Width Length Bearing (true) Bearing (mag) Surface Threshold Offset Overrun Length
10 98 ft / 30 m 2,504 ft / 763 m 83.74° 97.85° Asphalt 0 ft / 0 m 0 ft / 0 m
28 98 ft / 30 m 2,504 ft / 763 m 263.75° 277.86° Asphalt 0 ft / 0 m 0 ft / 0 m

Popular Alternatives